Time;durP1;ratioP1;P1;durP2;ratioP2;P2;SDS_P1;SDS_P2;PMS_P1;PMS_P2;Temp;Humidity;BMP_temperature;BMP_pressure;BME280_temperature;BME280_humidity;BME280_pressure;Samples;Min_cycle;Max_cycle;Signal;HPM_P1;HPM_P2
2022/12/03 00:00:10;;;;;;;0.10;0.10;;;;;;;8.05;100.00;100459.66;338195;29;1670;-74
2022/12/03 00:00:21;;;;;;;0.10;0.10;;;;;;;8.05;100.00;100470.09;335602;29;1100;-74
2022/12/03 00:00:31;;;;;;;0.10;0.10;;;;;;;8.05;100.00;100467.47;337908;29;938;-74
2022/12/03 00:00:42;;;;;;;0.10;0.10;;;;;;;8.04;100.00;100457.94;337541;29;1541;-74
2022/12/03 00:00:52;;;;;;;0.10;0.10;;;;;;;8.03;100.00;100466.63;338266;29;1313;-74
2022/12/03 00:01:02;;;;;;;0.20;0.20;;;;;;;8.03;100.00;100461.44;338020;29;1454;-74
2022/12/03 00:01:13;;;;;;;0.20;0.20;;;;;;;8.05;100.00;100469.22;334127;29;1777;-74
2022/12/03 00:01:23;;;;;;;0.30;0.30;;;;;;;8.02;100.00;100463.19;331835;29;918;-74
2022/12/03 00:01:34;;;;;;;0.20;0.20;;;;;;;8.04;100.00;100468.38;326959;30;847;-74
2022/12/03 00:01:44;;;;;;;0.20;0.20;;;;;;;8.03;100.00;100461.44;327297;30;1565;-74
2022/12/03 00:01:54;;;;;;;0.10;0.10;;;;;;;8.03;100.00;100466.63;324478;30;2067;-74
2022/12/03 00:02:05;;;;;;;0.20;0.20;;;;;;;8.01;100.00;100466.66;326948;30;1266;-74
2022/12/03 00:02:15;;;;;;;0.10;0.10;;;;;;;8.00;100.00;100466.69;328097;30;1578;-74
2022/12/03 00:02:25;;;;;;;0.20;0.20;;;;;;;8.01;100.00;100463.19;327426;30;1806;-74
2022/12/03 00:02:36;;;;;;;0.20;0.20;;;;;;;7.99;100.00;100464.97;329400;30;919;-75
2022/12/03 00:02:46;;;;;;;0.20;0.20;;;;;;;7.99;100.00;100460.63;331040;29;1515;-73
2022/12/03 00:02:57;;;;;;;0.10;0.10;;;;;;;8.00;100.00;100464.09;331096;29;1759;-73
2022/12/03 00:03:07;;;;;;;0.10;0.10;;;;;;;8.01;100.00;100463.19;328204;30;1304;-73
2022/12/03 00:03:18;;;;;;;0.10;0.10;;;;;;;8.00;100.00;100470.16;329048;29;2118;-73
2022/12/03 00:03:29;;;;;;;0.20;0.20;;;;;;;7.96;100.00;100465.03;321696;30;2350;-74
2022/12/03 00:03:39;;;;;;;0.15;0.15;;;;;;;7.96;100.00;100459.81;318462;30;4003;-74
2022/12/03 00:03:50;;;;;;;0.10;0.10;;;;;;;7.98;100.00;100463.25;319715;30;5702;-74
2022/12/03 00:04:00;;;;;;;0.17;0.17;;;;;;;7.98;100.00;100464.09;320706;30;3187;-74
2022/12/03 00:04:10;;;;;;;0.43;0.43;;;;;;;7.99;100.00;100460.63;318395;30;2506;-74
2022/12/03 00:04:21;;;;;;;0.55;0.55;;;;;;;7.99;100.00;100462.38;316829;31;3578;-74
2022/12/03 00:04:31;;;;;;;0.37;0.37;;;;;;;7.98;100.00;100469.31;318214;30;1617;-74
2022/12/03 00:04:45;;;;;;;0.15;0.15;;;;;;;7.96;100.00;100465.88;316247;31;1296;-74
2022/12/03 00:04:55;;;;;;;0.60;0.60;;;;;;;7.96;100.00;100459.81;315567;30;2068;-74
2022/12/03 00:05:06;;;;;;;0.60;0.60;;;;;;;7.97;100.00;100462.38;317550;31;955;-74
2022/12/03 00:05:16;;;;;;;0.10;0.10;;;;;;;7.96;100.00;100459.81;317048;31;2547;-74
2022/12/03 00:05:27;;;;;;;0.10;0.10;;;;;;;7.98;100.00;100465.84;314344;31;2814;-74
2022/12/03 00:05:37;;;;;;;0.10;0.10;;;;;;;7.97;100.00;100456.31;314082;31;1034;-74
2022/12/03 00:05:47;;;;;;;0.10;0.10;;;;;;;7.97;100.00;100461.53;315455;31;3122;-75
2022/12/03 00:05:58;;;;;;;0.10;0.10;;;;;;;7.97;100.00;100461.53;315644;31;3283;-74
2022/12/03 00:06:08;;;;;;;0.10;0.10;;;;;;;7.97;100.00;100461.53;315201;31;1002;-75
2022/12/03 00:06:18;;;;;;;0.10;0.10;;;;;;;7.97;100.00;100466.75;313834;31;1006;-74
2022/12/03 00:06:29;;;;;;;0.10;0.10;;;;;;;7.96;100.00;100455.47;310756;31;2873;-74
2022/12/03 00:06:39;;;;;;;0.10;0.10;;;;;;;7.96;100.00;100454.59;308367;31;2327;-74
2022/12/03 00:06:50;;;;;;;0.10;0.10;;;;;;;7.98;100.00;100463.25;307622;32;945;-74
2022/12/03 00:07:00;;;;;;;0.10;0.10;;;;;;;7.99;100.00;100462.38;308662;31;1928;-74
2022/12/03 00:07:10;;;;;;;0.10;0.10;;;;;;;8.00;100.00;100461.47;310647;31;3204;-74
2022/12/03 00:07:21;;;;;;;0.10;0.10;;;;;;;7.99;100.00;100462.38;308589;32;899;-74
2022/12/03 00:07:31;;;;;;;0.10;0.10;;;;;;;7.99;100.00;100464.97;305340;31;3843;-74
2022/12/03 00:07:42;;;;;;;0.10;0.10;;;;;;;8.00;100.00;100466.69;303256;32;4125;-74
2022/12/03 00:07:52;;;;;;;0.10;0.10;;;;;;;8.00;100.00;100464.94;307603;32;834;-74
2022/12/03 00:08:02;;;;;;;0.10;0.10;;;;;;;8.01;100.00;100463.19;304458;32;4744;-74
2022/12/03 00:08:13;;;;;;;0.10;0.10;;;;;;;8.02;100.00;100464.91;302425;32;4013;-73
2022/12/03 00:08:23;;;;;;;0.10;0.10;;;;;;;7.99;100.00;100460.63;302981;32;1723;-74
2022/12/03 00:08:34;;;;;;;0.30;0.30;;;;;;;7.98;100.00;100458.03;298787;32;1698;-74
2022/12/03 00:08:44;;;;;;;0.30;0.30;;;;;;;7.96;100.00;100462.41;296791;33;3984;-73
2022/12/03 00:08:54;;;;;;;0.30;0.30;;;;;;;7.94;100.00;100457.22;296466;33;3059;-73
2022/12/03 00:09:05;;;;;;;0.20;0.20;;;;;;;7.94;100.00;100461.56;297141;33;893;-73
2022/12/03 00:09:15;;;;;;;0.20;0.20;;;;;;;7.92;100.00;100463.34;297325;33;2865;-73
2022/12/03 00:09:26;;;;;;;0.20;0.20;;;;;;;7.94;100.00;100462.44;297180;32;4223;-73
2022/12/03 00:09:36;;;;;;;0.20;0.20;;;;;;;7.94;100.00;100461.56;301682;32;909;-73
2022/12/03 00:09:46;;;;;;;0.20;0.20;;;;;;;7.96;100.00;100467.63;297049;33;5263;-73
2022/12/03 00:09:57;;;;;;;0.10;0.10;;;;;;;7.96;100.00;100467.63;294124;33;6318;-73
2022/12/03 00:10:07;;;;;;;0.10;0.10;;;;;;;7.96;100.00;100467.63;292198;33;950;-73
2022/12/03 00:10:18;;;;;;;0.10;0.10;;;;;;;7.95;100.00;100458.94;294110;33;6704;-73
2022/12/03 00:10:28;;;;;;;0.13;0.13;;;;;;;7.93;100.00;100467.69;293089;33;6278;-73
2022/12/03 00:10:39;;;;;;;0.10;0.10;;;;;;;7.90;100.00;100470.31;291495;33;5241;-73
2022/12/03 00:10:49;;;;;;;0.15;0.15;;;;;;;7.87;100.00;100459.94;295843;33;1611;-73
2022/12/03 00:11:00;;;;;;;0.20;0.20;;;;;;;7.82;100.00;100461.78;292223;33;5520;-73
2022/12/03 00:11:10;;;;;;;0.20;0.20;;;;;;;7.85;100.00;100466.94;290681;33;4300;-73
2022/12/03 00:11:20;;;;;;;0.20;0.20;;;;;;;7.85;100.00;100466.94;294071;33;1303;-73
2022/12/03 00:11:31;;;;;;;0.10;0.10;;;;;;;7.82;100.00;100465.22;293109;33;4439;-74
2022/12/03 00:11:41;;;;;;;0.10;0.10;;;;;;;7.81;100.00;100463.50;288336;34;6360;-74
2022/12/03 00:11:51;;;;;;;0.10;0.10;;;;;;;7.79;100.00;100462.72;287504;34;1078;-74
2022/12/03 00:12:02;;;;;;;0.10;0.10;;;;;;;7.77;100.00;100461.88;289682;33;7964;-73
2022/12/03 00:12:12;;;;;;;0.10;0.10;;;;;;;7.78;100.00;100470.56;287812;34;8361;-73
2022/12/03 00:12:23;;;;;;;0.10;0.10;;;;;;;7.79;100.00;100467.06;286501;34;916;-73
2022/12/03 00:12:33;;;;;;;0.10;0.10;;;;;;;7.79;100.00;100464.44;285929;34;9180;-73
2022/12/03 00:14:11;;;;;;;0.58;0.58;;;;;;;7.80;100.00;100468.78;2493633;27;20487;-73
2022/12/03 00:14:21;;;;;;;0.20;0.20;;;;;;;7.80;100.00;100464.41;353171;28;1408;-73
2022/12/03 00:14:32;;;;;;;0.20;0.20;;;;;;;7.82;100.00;100472.19;350476;28;1265;-73
2022/12/03 00:14:42;;;;;;;0.20;0.20;;;;;;;7.84;100.00;100465.22;351756;28;1040;-73
2022/12/03 00:14:52;;;;;;;0.20;0.20;;;;;;;7.86;100.00;100466.06;350413;28;918;-73
2022/12/03 00:15:04;;;;;;;0.20;0.20;;;;;;;7.87;100.00;100466.03;349003;28;970;-73
2022/12/03 00:15:14;;;;;;;0.17;0.17;;;;;;;7.85;100.00;100467.78;348845;28;2205;-73
2022/12/03 00:15:25;;;;;;;0.20;0.20;;;;;;;7.84;100.00;100466.06;349049;28;961;-73
2022/12/03 00:15:35;;;;;;;0.10;0.10;;;;;;;7.86;100.00;100460.84;348938;28;922;-73
2022/12/03 00:15:46;;;;;;;0.10;0.10;;;;;;;7.87;100.00;100466.03;349170;28;906;-73
2022/12/03 00:15:56;;;;;;;0.10;0.10;;;;;;;7.89;100.00;100466.00;352635;28;1912;-73
2022/12/03 00:16:06;;;;;;;0.10;0.10;;;;;;;7.90;100.00;100470.31;350377;28;1193;-73
2022/12/03 00:16:17;;;;;;;0.10;0.10;;;;;;;7.91;100.00;100472.91;348762;28;1556;-73
2022/12/03 00:16:27;;;;;;;0.10;0.10;;;;;;;7.92;100.00;100469.41;347482;28;1293;-73
2022/12/03 00:16:37;;;;;;;0.20;0.20;;;;;;;7.93;100.00;100465.94;347601;28;1344;-73
2022/12/03 00:16:48;;;;;;;0.10;0.10;;;;;;;7.94;100.00;100469.41;347639;28;928;-73
2022/12/03 00:16:58;;;;;;;0.10;0.10;;;;;;;7.94;100.00;100472.00;344802;28;1331;-73
2022/12/03 00:17:09;;;;;;;0.10;0.10;;;;;;;7.94;100.00;100467.66;346113;28;1324;-73
2022/12/03 00:17:19;;;;;;;0.10;0.10;;;;;;;7.95;100.00;100473.72;346346;28;849;-73
2022/12/03 00:17:29;;;;;;;0.20;0.20;;;;;;;7.96;100.00;100470.22;348867;28;1177;-73
2022/12/03 00:17:40;;;;;;;0.15;0.15;;;;;;;7.96;100.00;100467.63;350929;28;1892;-73
2022/12/03 00:17:50;;;;;;;0.13;0.13;;;;;;;7.96;100.00;100475.44;352453;28;911;-73
2022/12/03 00:18:01;;;;;;;0.10;0.10;;;;;;;7.95;100.00;100473.72;348948;28;2117;-73
2022/12/03 00:18:11;;;;;;;0.20;0.20;;;;;;;7.94;100.00;100465.03;348949;28;868;-73
2022/12/03 00:18:21;;;;;;;0.10;0.10;;;;;;;7.94;100.00;100474.59;350224;28;939;-74
2022/12/03 00:18:32;;;;;;;0.10;0.10;;;;;;;7.95;100.00;100473.72;348243;28;1903;-74
2022/12/03 00:18:42;;;;;;;0.10;0.10;;;;;;;7.94;100.00;100475.47;347704;28;864;-74
2022/12/03 00:18:52;;;;;;;0.10;0.10;;;;;;;7.95;100.00;100471.97;346091;28;1289;-74
2022/12/03 00:19:03;;;;;;;0.03;0.03;;;;;;;7.96;100.00;100476.31;345721;28;928;-73
2022/12/03 00:19:13;;;;;;;0.10;0.10;;;;;;;7.97;100.00;100475.41;346248;28;1141;-73
2022/12/03 00:19:24;;;;;;;0.13;0.13;;;;;;;7.98;100.00;100478.88;345663;28;1937;-73
2022/12/03 00:19:34;;;;;;;0.13;0.13;;;;;;;7.97;100.00;100467.59;343395;28;1644;-73
2022/12/03 00:19:44;;;;;;;0.17;0.17;;;;;;;7.98;100.00;100474.53;344857;28;1339;-73
2022/12/03 00:19:55;;;;;;;0.10;0.10;;;;;;;8.01;100.00;100473.63;338267;29;991;-73
2022/12/03 00:20:06;;;;;;;0.20;0.20;;;;;;;8.00;100.00;100474.50;341562;28;1195;-73
2022/12/03 00:20:19;;;;;;;0.17;0.17;;;;;;;8.02;100.00;100475.34;341949;28;1317;-73
2022/12/03 00:20:29;;;;;;;0.13;0.13;;;;;;;8.01;100.00;100473.63;340885;29;1046;-73
2022/12/03 00:20:40;;;;;;;0.10;0.10;;;;;;;8.02;100.00;100477.94;342300;28;936;-73
2022/12/03 00:20:50;;;;;;;0.10;0.10;;;;;;;8.02;100.00;100475.34;340003;29;1116;-74
2022/12/03 00:21:00;;;;;;;0.00;0.00;;;;;;;8.02;100.00;100475.34;339395;29;1934;-73
2022/12/03 00:21:11;;;;;;;0.10;0.10;;;;;;;8.01;100.00;100474.47;337533;29;1608;-73
2022/12/03 00:21:21;;;;;;;0.03;0.03;;;;;;;8.01;100.00;100474.47;338706;29;1243;-73
2022/12/03 00:21:32;;;;;;;0.10;0.10;;;;;;;8.00;100.00;100477.97;338137;29;902;-73
2022/12/03 00:21:42;;;;;;;0.10;0.10;;;;;;;8.00;100.00;100477.97;338301;29;909;-73
2022/12/03 00:21:53;;;;;;;0.10;0.10;;;;;;;8.00;100.00;100479.72;340577;29;1090;-73
2022/12/03 00:22:03;;;;;;;0.10;0.10;;;;;;;7.98;100.00;100476.28;338845;29;3840;-73
2022/12/03 00:22:13;;;;;;;0.10;0.10;;;;;;;7.96;100.00;100475.44;337162;29;3072;-73
2022/12/03 00:22:24;;;;;;;0.20;0.20;;;;;;;7.94;100.00;100472.88;334223;29;1334;-73
2022/12/03 00:22:34;;;;;;;0.40;0.40;;;;;;;7.95;100.00;100476.34;333347;29;2661;-73
2022/12/03 00:22:45;;;;;;;0.40;0.40;;;;;;;7.96;100.00;100480.66;332022;29;3523;-73
2022/12/03 00:22:55;;;;;;;0.17;0.17;;;;;;;7.96;100.00;100481.53;338419;29;901;-73
2022/12/03 00:23:06;;;;;;;0.10;0.10;;;;;;;7.97;100.00;100477.16;332958;29;1431;-73
2022/12/03 00:23:16;;;;;;;0.10;0.10;;;;;;;7.93;100.00;100478.09;333453;29;1526;-73
2022/12/03 00:23:26;;;;;;;0.10;0.10;;;;;;;7.88;100.00;100478.16;334402;29;944;-74
2022/12/03 00:23:37;;;;;;;0.10;0.10;;;;;;;7.86;100.00;100479.06;334823;29;1652;-73
2022/12/03 00:23:47;;;;;;;0.10;0.10;;;;;;;7.83;100.00;100479.13;332003;29;1197;-73
2022/12/03 00:23:57;;;;;;;0.10;0.10;;;;;;;7.82;100.00;100477.41;330638;29;1322;-73
2022/12/03 00:24:08;;;;;;;0.10;0.10;;;;;;;7.82;100.00;100480.00;331063;29;1566;-73
2022/12/03 00:24:18;;;;;;;0.10;0.10;;;;;;;7.84;100.00;100478.25;332494;29;1822;-73
2022/12/03 00:24:29;;;;;;;0.10;0.10;;;;;;;7.84;100.00;100486.91;332971;29;2160;-73
2022/12/03 00:24:39;;;;;;;0.10;0.10;;;;;;;7.85;100.00;100482.56;330330;29;1939;-73
2022/12/03 00:24:49;;;;;;;0.10;0.10;;;;;;;7.87;100.00;100486.00;328995;29;2065;-73
2022/12/03 00:25:00;;;;;;;0.10;0.10;;;;;;;7.88;100.00;100482.53;329284;29;2160;-74
2022/12/03 00:25:10;;;;;;;0.10;0.10;;;;;;;7.88;100.00;100477.31;329325;30;1328;-74
2022/12/03 00:25:20;;;;;;;0.10;0.10;;;;;;;7.88;100.00;100490.34;330455;29;1679;-74
2022/12/03 00:25:31;;;;;;;0.10;0.10;;;;;;;7.89;100.00;100481.63;327063;30;1486;-74
2022/12/03 00:25:41;;;;;;;0.10;0.10;;;;;;;7.88;100.00;100487.72;323704;30;1007;-74
2022/12/03 00:25:52;;;;;;;0.17;0.17;;;;;;;7.88;100.00;100483.38;325130;30;1413;-74
2022/12/03 00:26:02;;;;;;;0.17;0.17;;;;;;;7.90;100.00;100483.34;324565;30;1714;-74
2022/12/03 00:26:12;;;;;;;0.20;0.20;;;;;;;7.92;100.00;100484.19;330610;29;1815;-74
2022/12/03 00:26:23;;;;;;;0.10;0.10;;;;;;;7.93;100.00;100483.31;330166;29;2110;-74
2022/12/03 00:26:33;;;;;;;0.10;0.10;;;;;;;7.93;100.00;100486.78;327146;30;2491;-74
2022/12/03 00:26:44;;;;;;;0.10;0.10;;;;;;;7.94;100.00;100485.91;324582;30;896;-74
2022/12/03 00:26:54;;;;;;;0.10;0.10;;;;;;;7.93;100.00;100480.69;325196;30;2494;-74
2022/12/03 00:27:04;;;;;;;0.10;0.10;;;;;;;7.91;100.00;100482.47;325743;30;2964;-74
2022/12/03 00:27:15;;;;;;;0.10;0.10;;;;;;;7.91;100.00;100482.47;324269;30;2826;-73
2022/12/03 00:27:25;;;;;;;0.10;0.10;;;;;;;7.91;100.00;100485.06;320993;30;1046;-73
2022/12/03 00:27:36;;;;;;;0.10;0.10;;;;;;;7.91;100.00;100480.72;323484;30;1869;-73
2022/12/03 00:27:46;;;;;;;0.20;0.20;;;;;;;7.90;100.00;100481.63;323041;30;1276;-73
2022/12/03 00:27:56;;;;;;;0.20;0.20;;;;;;;7.91;100.00;100482.47;319898;30;2009;-73
2022/12/03 00:28:07;;;;;;;0.20;0.20;;;;;;;7.92;100.00;100486.81;317482;30;2197;-73
2022/12/03 00:28:17;;;;;;;0.20;0.20;;;;;;;7.93;100.00;100486.78;314022;31;2635;-73
2022/12/03 00:28:28;;;;;;;0.17;0.17;;;;;;;7.94;100.00;100487.63;312931;31;2013;-73
2022/12/03 00:28:38;;;;;;;0.10;0.10;;;;;;;7.95;100.00;100490.22;314743;31;2767;-73
2022/12/03 00:28:48;;;;;;;0.17;0.17;;;;;;;7.96;100.00;100486.72;313755;31;3202;-73
2022/12/03 00:28:59;;;;;;;0.30;0.30;;;;;;;7.97;100.00;100491.06;314131;31;930;-73
2022/12/03 00:29:10;;;;;;;0.40;0.40;;;;;;;7.97;100.00;100483.25;312423;31;3291;-73
2022/12/03 00:29:20;;;;;;;0.30;0.30;;;;;;;7.98;100.00;100489.31;312058;31;3493;-73
2022/12/03 00:29:30;;;;;;;0.20;0.20;;;;;;;7.97;100.00;100482.38;309380;31;3292;-73
2022/12/03 00:29:41;;;;;;;0.10;0.10;;;;;;;7.99;100.00;100488.44;310789;31;935;-73
2022/12/03 00:29:51;;;;;;;0.20;0.20;;;;;;;7.99;100.00;100485.81;312242;31;2416;-73
2022/12/03 00:30:02;;;;;;;0.10;0.10;;;;;;;8.00;100.00;100487.53;313245;31;2343;-73
2022/12/03 00:30:13;;;;;;;0.10;0.10;;;;;;;8.00;100.00;100487.53;312915;31;981;-74
2022/12/03 00:30:23;;;;;;;0.10;0.10;;;;;;;8.01;100.00;100489.25;311411;31;3025;-74
2022/12/03 00:30:34;;;;;;;0.10;0.10;;;;;;;8.01;100.00;100492.72;309095;31;3230;-73
2022/12/03 00:30:44;;;;;;;0.10;0.10;;;;;;;8.00;100.00;100487.53;309655;31;911;-73
2022/12/03 00:30:55;;;;;;;0.10;0.10;;;;;;;8.02;100.00;100485.78;307853;31;3759;-73
2022/12/03 00:31:05;;;;;;;0.10;0.10;;;;;;;8.01;100.00;100489.25;306953;31;4178;-73
2022/12/03 00:31:15;;;;;;;0.20;0.20;;;;;;;8.00;100.00;100490.16;305738;32;5095;-73
2022/12/03 00:31:26;;;;;;;0.20;0.20;;;;;;;8.00;100.00;100497.97;303190;32;5432;-73
2022/12/03 00:31:36;;;;;;;0.20;0.20;;;;;;;7.99;100.00;100485.81;306308;32;6123;-73
2022/12/03 00:31:47;;;;;;;0.30;0.30;;;;;;;7.98;100.00;100489.31;305543;32;4660;-73
2022/12/03 00:31:57;;;;;;;0.30;0.30;;;;;;;7.99;100.00;100491.03;305780;32;5638;-73
2022/12/03 00:32:07;;;;;;;0.40;0.40;;;;;;;7.99;100.00;100496.25;304668;32;3335;-73
2022/12/03 00:32:18;;;;;;;0.20;0.20;;;;;;;7.98;100.00;100489.31;303770;32;3335;-73
2022/12/03 00:32:28;;;;;;;0.20;0.20;;;;;;;7.98;100.00;100486.72;302201;32;1161;-73
2022/12/03 00:32:39;;;;;;;0.10;0.10;;;;;;;7.99;100.00;100485.81;303222;32;4192;-73
2022/12/03 00:32:49;;;;;;;0.10;0.10;;;;;;;7.99;100.00;100485.81;306707;31;4615;-73
2022/12/03 00:32:59;;;;;;;0.10;0.10;;;;;;;7.99;100.00;100489.28;308493;32;1254;-73
2022/12/03 00:33:10;;;;;;;0.10;0.10;;;;;;;8.00;100.00;100488.41;299258;32;1926;-73
2022/12/03 00:33:20;;;;;;;0.10;0.10;;;;;;;8.00;100.00;100495.38;298776;32;5516;-73
2022/12/03 00:33:31;;;;;;;0.10;0.10;;;;;;;8.01;100.00;100489.25;296207;32;6376;-73
2022/12/03 00:33:41;;;;;;;0.10;0.10;;;;;;;8.01;100.00;100489.25;298167;33;909;-73
2022/12/03 00:33:52;;;;;;;0.20;0.20;;;;;;;8.01;100.00;100490.13;299905;32;6137;-73
2022/12/03 00:34:02;;;;;;;0.13;0.13;;;;;;;8.01;100.00;100487.53;299128;32;6123;-73
2022/12/03 00:34:12;;;;;;;0.20;0.20;;;;;;;8.02;100.00;100493.59;295202;33;1057;-73
2022/12/03 00:34:23;;;;;;;0.10;0.10;;;;;;;8.03;100.00;100492.72;295606;33;4819;-73
2022/12/03 00:34:33;;;;;;;0.10;0.10;;;;;;;8.01;100.00;100490.13;293045;33;5913;-73
2022/12/03 00:34:44;;;;;;;0.10;0.10;;;;;;;8.02;100.00;100489.25;291140;34;1557;-73
2022/12/03 00:34:54;;;;;;;0.10;0.10;;;;;;;8.02;100.00;100490.97;291074;33;6401;-73
2022/12/03 00:35:05;;;;;;;0.00;0.00;;;;;;;8.02;100.00;100493.59;290152;33;6885;-73
2022/12/03 00:35:16;;;;;;;0.00;0.00;;;;;;;8.02;100.00;100490.97;288330;33;7164;-73
2022/12/03 00:35:26;;;;;;;0.00;0.00;;;;;;;8.02;100.00;100490.97;288327;34;1448;-73
2022/12/03 00:35:36;;;;;;;0.00;0.00;;;;;;;8.02;100.00;100490.97;286079;34;7822;-73
2022/12/03 00:35:47;;;;;;;0.10;0.10;;;;;;;8.03;100.00;100487.50;283012;34;8842;-73
2022/12/03 00:35:57;;;;;;;0.10;0.10;;;;;;;8.03;100.00;100492.72;286538;34;936;-73
2022/12/03 00:36:08;;;;;;;0.10;0.10;;;;;;;8.04;100.00;100494.44;283086;34;8295;-73
2022/12/03 00:36:18;;;;;;;0.10;0.10;;;;;;;8.06;100.00;100491.81;283571;34;8157;-73
2022/12/03 00:36:28;;;;;;;0.10;0.10;;;;;;;8.05;100.00;100488.34;288315;34;1720;-73
2022/12/03 00:36:39;;;;;;;0.10;0.10;;;;;;;8.05;100.00;100488.34;285207;34;6903;-73
2022/12/03 00:36:49;;;;;;;0.10;0.10;;;;;;;8.06;100.00;100492.66;283991;34;8634;-73
2022/12/03 00:37:00;;;;;;;0.10;0.10;;;;;;;8.06;100.00;100487.44;284535;34;5169;-73
2022/12/03 00:37:10;;;;;;;0.10;0.10;;;;;;;8.07;100.00;100488.31;280045;35;1377;-73
2022/12/03 00:38:51;;;;;;;0.26;0.26;;;;;;;8.07;100.00;100493.53;2496444;27;20803;-73
2022/12/03 00:39:02;;;;;;;0.10;0.10;;;;;;;8.07;100.00;100490.91;352547;28;1410;-73
2022/12/03 00:39:12;;;;;;;0.10;0.10;;;;;;;8.07;100.00;100497.00;348911;28;1210;-73
2022/12/03 00:39:23;;;;;;;0.10;0.10;;;;;;;8.08;100.00;100490.88;347607;28;1260;-73
2022/12/03 00:39:33;;;;;;;0.20;0.20;;;;;;;8.07;100.00;100494.38;347639;28;1311;-73
2022/12/03 00:39:43;;;;;;;0.20;0.20;;;;;;;8.07;100.00;100494.38;347560;28;1655;-73
2022/12/03 00:39:54;;;;;;;0.20;0.20;;;;;;;8.07;100.00;100491.78;348918;28;1270;-73
2022/12/03 00:40:05;;;;;;;0.10;0.10;;;;;;;8.06;100.00;100492.66;347574;28;995;-73
2022/12/03 00:40:15;;;;;;;0.00;0.00;;;;;;;8.07;100.00;100489.16;348021;28;1648;-72
2022/12/03 00:40:26;;;;;;;0.00;0.00;;;;;;;8.07;100.00;100499.59;348577;28;3464;-73
2022/12/03 00:40:36;;;;;;;0.00;0.00;;;;;;;8.08;100.00;100495.25;347170;28;3998;-74
2022/12/03 00:40:46;;;;;;;0.10;0.10;;;;;;;8.07;100.00;100494.38;347279;28;3358;-73
2022/12/03 00:41:00;;;;;;;0.30;0.30;;;;;;;8.08;100.00;100495.25;346176;28;2625;-74
2022/12/03 00:41:10;;;;;;;0.60;0.60;;;;;;;8.07;100.00;100494.38;344636;28;3677;-73
2022/12/03 00:41:21;;;;;;;0.53;0.53;;;;;;;8.08;100.00;100495.25;347643;28;1085;-73
2022/12/03 00:41:31;;;;;;;0.30;0.30;;;;;;;8.08;100.00;100493.50;347548;28;1290;-73
2022/12/03 00:41:42;;;;;;;0.10;0.10;;;;;;;8.08;100.00;100490.88;344972;28;872;-72
2022/12/03 00:41:52;;;;;;;0.10;0.10;;;;;;;8.07;100.00;100493.53;343545;28;944;-74
2022/12/03 00:42:03;;;;;;;0.03;0.03;;;;;;;8.05;100.00;100498.75;344905;28;1239;-73
2022/12/03 00:42:13;;;;;;;0.10;0.10;;;;;;;8.02;100.00;100496.19;346288;28;977;-73
2022/12/03 00:42:23;;;;;;;0.10;0.10;;;;;;;7.99;100.00;100494.50;346107;28;1270;-73
2022/12/03 00:42:34;;;;;;;0.20;0.20;;;;;;;7.94;100.00;100498.91;347259;28;921;-73
2022/12/03 00:42:44;;;;;;;0.10;0.10;;;;;;;7.93;100.00;100496.34;346604;28;1294;-73
2022/12/03 00:42:54;;;;;;;0.10;0.10;;;;;;;7.93;100.00;100491.13;346287;28;901;-73
2022/12/03 00:43:05;;;;;;;0.03;0.03;;;;;;;7.93;100.00;100491.13;346113;28;1245;-73
2022/12/03 00:43:15;;;;;;;0.10;0.10;;;;;;;7.96;100.00;100501.50;345349;28;998;-73
2022/12/03 00:43:26;;;;;;;0.10;0.10;;;;;;;7.96;100.00;100498.91;346021;28;1199;-73
2022/12/03 00:43:36;;;;;;;0.20;0.20;;;;;;;7.97;100.00;100487.59;344583;28;1915;-73
2022/12/03 00:43:46;;;;;;;0.17;0.17;;;;;;;7.98;100.00;100504.94;343540;28;853;-73
2022/12/03 00:43:57;;;;;;;0.20;0.20;;;;;;;7.99;100.00;100497.09;343430;28;1523;-73
2022/12/03 00:44:07;;;;;;;0.10;0.10;;;;;;;8.01;100.00;100494.47;343470;28;1380;-73
2022/12/03 00:44:18;;;;;;;0.10;0.10;;;;;;;8.01;100.00;100494.47;344882;28;892;-74
2022/12/03 00:44:28;;;;;;;0.10;0.10;;;;;;;8.02;100.00;100493.59;346345;28;1331;-73
2022/12/03 00:44:38;;;;;;;0.00;0.00;;;;;;;8.03;100.00;100497.91;346173;28;1200;-73
2022/12/03 00:44:49;;;;;;;0.10;0.10;;;;;;;8.03;100.00;100495.31;345109;28;1212;-73
2022/12/03 00:44:59;;;;;;;0.10;0.10;;;;;;;8.02;100.00;100497.06;341785;28;1582;-73
2022/12/03 00:45:10;;;;;;;0.10;0.10;;;;;;;8.03;100.00;100497.91;346313;28;838;-73
2022/12/03 00:45:20;;;;;;;0.03;0.03;;;;;;;8.04;100.00;100494.44;347488;28;1920;-73
2022/12/03 00:45:30;;;;;;;0.03;0.03;;;;;;;8.05;100.00;100496.16;348484;28;1284;-73
2022/12/03 00:45:41;;;;;;;0.10;0.10;;;;;;;8.05;100.00;100495.28;348299;28;1296;-73
2022/12/03 00:45:51;;;;;;;0.10;0.10;;;;;;;8.05;100.00;100496.16;344919;28;1230;-73
2022/12/03 00:46:02;;;;;;;0.10;0.10;;;;;;;8.06;100.00;100497.00;344949;28;814;-73
2022/12/03 00:46:12;;;;;;;0.10;0.10;;;;;;;8.06;100.00;100502.22;347454;28;1545;-73
2022/12/03 00:46:23;;;;;;;0.10;0.10;;;;;;;8.05;100.00;100498.75;346361;28;915;-73
2022/12/03 00:46:34;;;;;;;0.10;0.10;;;;;;;8.06;100.00;100503.09;348856;28;1125;-73
2022/12/03 00:46:44;;;;;;;0.10;0.10;;;;;;;8.06;100.00;100495.25;349322;28;1456;-73
2022/12/03 00:46:55;;;;;;;0.10;0.10;;;;;;;8.06;100.00;100497.88;346145;28;1227;-73
2022/12/03 00:47:05;;;;;;;0.10;0.10;;;;;;;8.07;100.00;100497.00;342573;28;1790;-73
2022/12/03 00:47:15;;;;;;;0.10;0.10;;;;;;;8.08;100.00;100500.47;340767;28;1402;-74
2022/12/03 00:47:26;;;;;;;0.03;0.03;;;;;;;8.08;100.00;100503.06;339642;29;1509;-73
2022/12/03 00:47:36;;;;;;;0.10;0.10;;;;;;;8.08;100.00;100501.31;339512;29;1307;-73
2022/12/03 00:47:46;;;;;;;0.05;0.05;;;;;;;8.07;100.00;100494.38;339594;29;1930;-73
2022/12/03 00:47:57;;;;;;;0.10;0.10;;;;;;;8.08;100.00;100496.09;337056;29;922;-73
2022/12/03 00:48:07;;;;;;;0.10;0.10;;;;;;;8.09;100.00;100492.59;339543;29;918;-73
2022/12/03 00:48:18;;;;;;;0.10;0.10;;;;;;;8.10;100.00;100494.34;341919;28;931;-74
2022/12/03 00:48:28;;;;;;;0.10;0.10;;;;;;;8.08;100.00;100490.88;342204;28;1853;-74
2022/12/03 00:48:38;;;;;;;0.10;0.10;;;;;;;8.07;100.00;100497.00;341476;28;951;-74
2022/12/03 00:48:49;;;;;;;0.10;0.10;;;;;;;8.08;100.00;100495.25;338800;29;1807;-74
2022/12/03 00:48:59;;;;;;;0.10;0.10;;;;;;;8.06;100.00;100491.81;338244;29;1958;-74
2022/12/03 00:49:10;;;;;;;0.10;0.10;;;;;;;8.06;100.00;100494.41;335629;29;1216;-74
2022/12/03 00:49:20;;;;;;;0.10;0.10;;;;;;;8.03;100.00;100495.31;336589;29;2130;-73
2022/12/03 00:49:30;;;;;;;0.10;0.10;;;;;;;8.04;100.00;100498.78;332583;29;2019;-73
2022/12/03 00:49:41;;;;;;;0.10;0.10;;;;;;;8.04;100.00;100494.44;330968;29;3985;-73
2022/12/03 00:49:51;;;;;;;0.10;0.10;;;;;;;8.02;100.00;100490.97;333746;29;5025;-74
2022/12/03 00:50:02;;;;;;;0.20;0.20;;;;;;;8.03;100.00;100497.91;336671;29;1933;-73
2022/12/03 00:50:12;;;;;;;0.40;0.40;;;;;;;8.02;100.00;100491.84;333871;29;1863;-73
2022/12/03 00:50:22;;;;;;;0.40;0.40;;;;;;;8.03;100.00;100503.13;332049;29;913;-74
2022/12/03 00:50:33;;;;;;;0.23;0.23;;;;;;;8.03;100.00;100495.31;331111;29;1627;-74
2022/12/03 00:50:43;;;;;;;0.00;0.00;;;;;;;8.04;100.00;100497.03;331104;29;1704;-74
2022/12/03 00:50:54;;;;;;;0.10;0.10;;;;;;;8.04;100.00;100497.03;330636;29;891;-74
2022/12/03 00:51:04;;;;;;;0.00;0.00;;;;;;;8.05;100.00;100496.16;331373;29;2383;-74
2022/12/03 00:51:15;;;;;;;0.10;0.10;;;;;;;8.05;100.00;100493.53;328972;29;2459;-74
2022/12/03 00:51:25;;;;;;;0.10;0.10;;;;;;;8.05;100.00;100493.53;329364;30;1700;-74
2022/12/03 00:51:35;;;;;;;0.10;0.10;;;;;;;8.07;100.00;100493.53;325850;30;1058;-74
2022/12/03 00:51:46;;;;;;;0.20;0.20;;;;;;;8.05;100.00;100495.28;328198;29;2527;-75
2022/12/03 00:51:56;;;;;;;0.30;0.30;;;;;;;8.05;100.00;100490.06;327587;30;2640;-74
2022/12/03 00:52:07;;;;;;;0.20;0.20;;;;;;;8.05;100.00;100503.97;323084;30;2091;-74
2022/12/03 00:52:17;;;;;;;0.10;0.10;;;;;;;8.06;100.00;100497.00;321972;30;1683;-74
2022/12/03 00:52:27;;;;;;;0.05;0.05;;;;;;;8.05;100.00;100496.16;319156;30;1364;-74
2022/12/03 00:52:38;;;;;;;0.10;0.10;;;;;;;8.05;100.00;100496.16;322270;30;1078;-75
2022/12/03 00:52:48;;;;;;;0.08;0.08;;;;;;;8.04;100.00;100504.84;322740;30;1904;-74
2022/12/03 00:52:59;;;;;;;0.00;0.00;;;;;;;8.04;100.00;100499.63;323344;30;2636;-74